WXM80 ListenWXM80 Stop

You find our weather info also at:

UK Metoffice

WeatherCloud

Weather Underground

Northeastern Weather Network

AWEKAS

Citizen Weather Observer Program (CWOP)

HAMweather, WeatherForYou, PWS Weather


Weather Underground History page Text

Daily Summary for February 17, 2018 Units:  Metric    English   Both
« Previous Day
Next Day »
Daily Weekly Monthly Yearly Custom
  High: Low: Average:
Temperature: 3.4 °C -0.8 °C 1.3 °C
Dew Point: 0.1 °C -6 °C -3.1 °C
Humidity: 97 % 57 % 74 %
Wind Speed: 14.6 km/h 0 km/h 5.3 km/h
Wind Gust: 22.5 km/h - -
Wind:- - SE
Pressure: 1021.9 hPa 1007.7 hPa -
Precipitation: 9.4 mm    
Historical Graphs
 
 
Tabular Data for February 17, 2018
Time Temperature Dew Point Pressure Wind Wind Speed Wind Gust Humidity Rainfall Rate (Hourly)
00:01 2.4 °C -1.7 °C 1012.8 hPa NNW 1.9 km/h 5.6 km/h 74 % 0 mm
00:02 2.4 °C -1.7 °C 1012.8 hPa NNW 0.2 km/h 5.6 km/h 74 % 0 mm
00:07 2.4 °C -1.6 °C 1013.1 hPa NW 0.5 km/h 1.9 km/h 75 % 0 mm
00:12 2.3 °C -1.7 °C 1013.1 hPa NNW 0.6 km/h 4.8 km/h 75 % 0 mm
00:17 2.2 °C -1.8 °C 1013.1 hPa NNW 5 km/h 7.4 km/h 75 % 0 mm
00:23 2.2 °C -2 °C 1013.1 hPa NNW 1.9 km/h 5.6 km/h 74 % 0 mm
00:28 2.1 °C -2.1 °C 1013.1 hPa NNW 4.2 km/h 9.3 km/h 74 % 0 mm
00:33 2.1 °C -2.3 °C 1013.1 hPa NW 3.2 km/h 9.3 km/h 73 % 0 mm
00:38 2 °C -2.2 °C 1013.4 hPa North 4.8 km/h 7.4 km/h 74 % 0 mm
00:43 1.9 °C -1.8 °C 1013.4 hPa NW 4.8 km/h 9.3 km/h 76 % 0 mm
00:48 1.9 °C -2 °C 1013.4 hPa North 6.6 km/h 18.5 km/h 75 % 0 mm
00:53 1.9 °C -2.3 °C 1013.8 hPa North 6.6 km/h 13 km/h 74 % 0 mm
00:58 1.8 °C -2.7 °C 1013.8 hPa North 10.6 km/h 20.4 km/h 72 % 0 mm
01:03 1.9 °C -2.6 °C 1013.8 hPa North 8.2 km/h 13 km/h 72 % 0 mm
01:08 1.9 °C -2.6 °C 1014.1 hPa NNE 9.5 km/h 14.8 km/h 72 % 0 mm
01:13 1.9 °C -2.4 °C 1014.1 hPa North 7.6 km/h 11.1 km/h 73 % 0 mm
01:18 1.8 °C -2.5 °C 1014.1 hPa North 11.7 km/h 22.2 km/h 73 % 0 mm
01:23 1.8 °C -3.3 °C 1014.1 hPa NNW 12.2 km/h 18.5 km/h 69 % 0 mm
01:28 1.8 °C -3.3 °C 1014.4 hPa North 8.9 km/h 16.7 km/h 69 % 0 mm
01:33 1.8 °C -3.3 °C 1014.8 hPa NNE 8.2 km/h 14.8 km/h 69 % 0 mm
01:38 1.8 °C -3.1 °C 1015.1 hPa NNW 8 km/h 9.7 km/h 70 % 0 mm
01:44 1.8 °C -2.7 °C 1015.1 hPa NNW 3.1 km/h 9.3 km/h 72 % 0 mm
01:49 1.7 °C -2.8 °C 1015.5 hPa NNW 1.4 km/h 3.2 km/h 72 % 0 mm
01:54 1.7 °C -2.7 °C 1015.1 hPa NNE 7.1 km/h 11.3 km/h 73 % 0 mm
01:59 1.6 °C -3.7 °C 1015.5 hPa NNW 14.6 km/h 22.5 km/h 68 % 0 mm
02:04 1.5 °C -3.9 °C 1015.5 hPa North 7.2 km/h 16.7 km/h 67 % 0 mm
02:09 1.4 °C -3.8 °C 1015.5 hPa NNW 9.3 km/h 18.5 km/h 68 % 0 mm
02:14 1.4 °C -3.9 °C 1015.5 hPa North 7.7 km/h 13 km/h 68 % 0 mm
02:19 1.3 °C -3.9 °C 1015.5 hPa NW 6.3 km/h 9.3 km/h 68 % 0 mm
02:24 1.3 °C -3.9 °C 1015.5 hPa North 5.1 km/h 11.3 km/h 68 % 0 mm
02:29 1.3 °C -4 °C 1015.5 hPa North 4.7 km/h 7.4 km/h 68 % 0 mm
02:34 1.2 °C -3.8 °C 1015.8 hPa North 6.6 km/h 9.3 km/h 69 % 0 mm
02:39 1.2 °C -3.8 °C 1015.5 hPa NNE 8.2 km/h 18.5 km/h 69 % 0 mm
02:44 1.2 °C -3.5 °C 1015.8 hPa North 9.5 km/h 13 km/h 71 % 0 mm
02:49 1.1 °C -3.6 °C 1015.8 hPa North 10.1 km/h 13 km/h 71 % 0 mm
02:54 1.1 °C -4 °C 1016.1 hPa North 12.1 km/h 17.7 km/h 69 % 0 mm
02:59 1 °C -4.7 °C 1016.1 hPa North 11.3 km/h 22.2 km/h 66 % 0 mm
03:04 0.9 °C -4.7 °C 1016.1 hPa NNW 11.3 km/h 18.5 km/h 66 % 0 mm
03:10 0.9 °C -4.8 °C 1016.5 hPa North 6.1 km/h 22.2 km/h 66 % 0 mm
03:15 0.9 °C -4.6 °C 1016.5 hPa North 9.8 km/h 14.5 km/h 67 % 0 mm
03:20 0.8 °C -4.6 °C 1016.8 hPa North 6.8 km/h 16.7 km/h 67 % 0 mm
03:25 0.8 °C -4.4 °C 1016.8 hPa NNE 8 km/h 16.7 km/h 68 % 0 mm
03:30 0.7 °C -4.5 °C 1016.8 hPa NNW 5.1 km/h 8 km/h 68 % 0 mm
03:35 0.7 °C -4.6 °C 1017.2 hPa NNW 10.8 km/h 14.8 km/h 68 % 0 mm
03:40 0.6 °C -4.5 °C 1017.2 hPa North 9.8 km/h 13 km/h 69 % 0 mm
03:45 0.5 °C -5.1 °C 1017.2 hPa North 12.7 km/h 18.5 km/h 66 % 0 mm
03:50 0.4 °C -5 °C 1017.5 hPa NNE 9.2 km/h 16.7 km/h 67 % 0 mm
03:55 0.4 °C -4.8 °C 1017.2 hPa NNE 12.7 km/h 18.5 km/h 68 % 0 mm
04:00 0.3 °C -5.1 °C 1017.5 hPa North 9.7 km/h 14.8 km/h 67 % 0 mm
04:05 0.3 °C -5.1 °C 1017.5 hPa NE 8.4 km/h 18.5 km/h 67 % 0 mm
04:10 0.2 °C -5.2 °C 1017.8 hPa NNE 13 km/h 14.8 km/h 67 % 0 mm
04:16 0.2 °C -5.4 °C 1017.8 hPa NNE 11.3 km/h 22.5 km/h 66 % 0 mm
04:21 0.1 °C -5.5 °C 1017.8 hPa NNE 9.7 km/h 19.3 km/h 66 % 0 mm
04:26 0.1 °C -5.6 °C 1017.8 hPa North 10.6 km/h 18.5 km/h 66 % 0 mm
04:31 0 °C -5.4 °C 1018.2 hPa NNE 13.2 km/h 14.8 km/h 67 % 0 mm
04:36 0 °C -5.4 °C 1018.5 hPa NNE 7.4 km/h 18.5 km/h 67 % 0 mm
04:41 -0.1 °C -5.3 °C 1018.5 hPa NNE 6.8 km/h 13 km/h 68 % 0 mm
04:46 -0.1 °C -5.7 °C 1018.5 hPa North 12.2 km/h 18.5 km/h 66 % 0 mm
04:51 -0.1 °C -5.5 °C 1018.5 hPa North 8.2 km/h 13 km/h 67 % 0 mm
04:56 -0.2 °C -5.6 °C 1018.8 hPa NNE 8.7 km/h 14.8 km/h 67 % 0 mm
05:01 -0.2 °C -5.6 °C 1018.8 hPa NNE 12.7 km/h 18.5 km/h 67 % 0 mm
05:06 -0.2 °C -5.4 °C 1018.8 hPa NNE 7.9 km/h 16.1 km/h 68 % 0 mm
05:11 -0.3 °C -5.5 °C 1018.8 hPa NNE 11.9 km/h 14.8 km/h 68 % 0 mm
05:16 -0.3 °C -5.5 °C 1018.8 hPa North 11.3 km/h 16.1 km/h 68 % 0 mm
05:21 -0.3 °C -5.5 °C 1018.8 hPa North 7.4 km/h 11.3 km/h 68 % 0 mm
05:26 -0.3 °C -5.3 °C 1018.8 hPa North 11.3 km/h 18.5 km/h 69 % 0 mm
05:31 -0.4 °C -5.6 °C 1019.2 hPa NNE 7.1 km/h 14.8 km/h 68 % 0 mm
05:36 -0.4 °C -5.4 °C 1019.2 hPa North 8.4 km/h 14.8 km/h 69 % 0 mm
05:41 -0.4 °C -5.4 °C 1019.2 hPa NNE 9 km/h 14.8 km/h 69 % 0 mm
05:46 -0.5 °C -5.5 °C 1019.5 hPa NNE 8 km/h 14.8 km/h 69 % 0 mm
05:51 -0.5 °C -5.5 °C 1019.5 hPa NNE 8.2 km/h 13 km/h 69 % 0 mm
05:57 -0.6 °C -5.3 °C 1019.9 hPa NNE 9 km/h 14.8 km/h 70 % 0 mm
06:02 -0.6 °C -5.3 °C 1019.9 hPa North 7.7 km/h 13 km/h 70 % 0 mm
06:07 -0.6 °C -5.6 °C 1019.9 hPa NNE 7.7 km/h 8 km/h 69 % 0 mm
06:12 -0.7 °C -5.7 °C 1019.9 hPa NE 10.1 km/h 16.7 km/h 69 % 0 mm
06:17 -0.7 °C -5.7 °C 1020.2 hPa NNE 5.6 km/h 9.3 km/h 69 % 0 mm
06:22 -0.7 °C -5.7 °C 1020.5 hPa NNE 8.4 km/h 11.3 km/h 69 % 0 mm
06:27 -0.7 °C -5.7 °C 1020.5 hPa North 7.1 km/h 11.1 km/h 69 % 0 mm
06:32 -0.8 °C -5.9 °C 1020.9 hPa NNE 7.9 km/h 11.1 km/h 68 % 0 mm
06:37 -0.8 °C -5.8 °C 1020.5 hPa NE 7.2 km/h 13 km/h 69 % 0 mm
06:42 -0.8 °C -5.8 °C 1020.9 hPa NNW 7.6 km/h 9.3 km/h 69 % 0 mm
06:47 -0.8 °C -6 °C 1020.9 hPa North 4.5 km/h 9.3 km/h 68 % 0 mm
06:52 -0.8 °C -6 °C 1020.9 hPa NNE 6.4 km/h 11.1 km/h 68 % 0 mm
06:57 -0.8 °C -5.8 °C 1020.5 hPa NNE 6.4 km/h 9.3 km/h 69 % 0 mm
07:02 -0.8 °C -5.6 °C 1020.5 hPa NNE 8.5 km/h 13 km/h 70 % 0 mm
07:07 -0.7 °C -5.7 °C 1020.5 hPa NNE 9.5 km/h 18.5 km/h 69 % 0 mm
07:12 -0.7 °C -5.7 °C 1020.5 hPa North 7.2 km/h 13 km/h 69 % 0 mm
07:17 -0.6 °C -5.4 °C 1020.5 hPa NE 6.4 km/h 9.3 km/h 70 % 0 mm
07:22 -0.6 °C -5.6 °C 1020.9 hPa NNE 4 km/h 7.4 km/h 69 % 0 mm
07:27 -0.5 °C -5.3 °C 1020.9 hPa NNE 8.2 km/h 13 km/h 70 % 0 mm
07:32 -0.4 °C -5.3 °C 1021.2 hPa NNE 2.4 km/h 5.6 km/h 70 % 0 mm
07:38 -0.4 °C -5.4 °C 1021.2 hPa NNE 5.5 km/h 13 km/h 69 % 0 mm
07:43 -0.3 °C -5.2 °C 1021.6 hPa NNE 4.5 km/h 4.8 km/h 70 % 0 mm
07:48 -0.3 °C -5.1 °C 1021.6 hPa NNE 6.3 km/h 9.7 km/h 70 % 0 mm
07:53 -0.2 °C -5 °C 1021.6 hPa ENE 3.1 km/h 6.4 km/h 70 % 0 mm
07:58 -0.1 °C -5.1 °C 1021.6 hPa NNE 4.7 km/h 9.3 km/h 69 % 0 mm
08:03 0 °C -5.2 °C 1021.9 hPa NE 3.2 km/h 11.1 km/h 68 % 0 mm
08:08 0.1 °C -5.1 °C 1021.6 hPa NNE 6.4 km/h 13 km/h 68 % 0 mm
08:13 0.2 °C -5.1 °C 1021.9 hPa NNE 2.7 km/h 5.6 km/h 68 % 0 mm
08:18 0.3 °C -4.9 °C 1021.9 hPa NNE 4.8 km/h 6.4 km/h 68 % 0 mm
08:23 0.4 °C -5.1 °C 1021.9 hPa NNE 5.1 km/h 11.1 km/h 67 % 0 mm
08:28 0.4 °C -5 °C 1021.9 hPa ENE 3.5 km/h 5.6 km/h 67 % 0 mm
08:33 0.6 °C -4.6 °C 1021.9 hPa NNE 4.2 km/h 5.6 km/h 68 % 0 mm
08:35 0.7 °C -4.6 °C 1021.6 hPa NNE 3.5 km/h 5.6 km/h 68 % 0 mm
08:40 0.9 °C -4.6 °C 1021.9 hPa ENE 5.3 km/h 9.3 km/h 67 % 0 mm
08:45 1 °C -4.4 °C 1021.6 hPa East 4 km/h 8 km/h 67 % 0 mm
08:50 1.2 °C -4.1 °C 1021.6 hPa NE 6 km/h 6.4 km/h 68 % 0 mm
08:55 1.3 °C -4.3 °C 1021.6 hPa ENE 7.4 km/h 11.1 km/h 66 % 0 mm
09:00 1.4 °C -4.7 °C 1021.6 hPa NNE 8.4 km/h 13 km/h 64 % 0 mm
09:06 1.4 °C -4.6 °C 1021.6 hPa NE 6 km/h 14.8 km/h 64 % 0 mm
09:11 1.3 °C -4.7 °C 1021.6 hPa ENE 9.7 km/h 14.5 km/h 64 % 0 mm
09:16 1.4 °C -4.2 °C 1021.6 hPa NE 3.2 km/h 11.3 km/h 66 % 0 mm
09:21 1.6 °C -4.5 °C 1021.6 hPa ENE 4.8 km/h 14.5 km/h 64 % 0 mm
09:26 1.7 °C -4.2 °C 1021.2 hPa ENE 9.7 km/h 14.5 km/h 65 % 0 mm
09:31 1.6 °C -4.3 °C 1021.2 hPa ENE 4.8 km/h 12.9 km/h 65 % 0 mm
09:36 1.5 °C -4.6 °C 1021.2 hPa ENE 4.8 km/h 14.5 km/h 64 % 0 mm
09:41 1.6 °C -4.1 °C 1021.2 hPa ENE 8 km/h 12.9 km/h 66 % 0 mm
09:46 1.6 °C -4.3 °C 1021.2 hPa ENE 8 km/h 12.9 km/h 65 % 0 mm
09:51 1.5 °C -4.2 °C 1021.2 hPa ENE 4.8 km/h 11.3 km/h 66 % 0 mm
09:56 1.6 °C -4.3 °C 1021.6 hPa ENE 10.3 km/h 13 km/h 65 % 0 mm
10:01 1.6 °C -4.1 °C 1021.2 hPa NNE 3.7 km/h 13 km/h 66 % 0 mm
10:06 1.7 °C -4.2 °C 1021.2 hPa ENE 4.3 km/h 13 km/h 65 % 0 mm
10:11 1.8 °C -4.1 °C 1021.2 hPa ENE 5.3 km/h 13 km/h 65 % 0 mm
10:16 1.8 °C -4.1 °C 1020.9 hPa NE 8.4 km/h 13 km/h 65 % 0 mm
10:21 1.8 °C -3.9 °C 1020.9 hPa ENE 7.2 km/h 9.3 km/h 66 % 0 mm
10:26 1.8 °C -3.8 °C 1020.9 hPa ENE 9.3 km/h 16.1 km/h 66 % 0 mm
10:31 1.8 °C -3.8 °C 1020.9 hPa ENE 6.9 km/h 11.1 km/h 66 % 0 mm
10:36 1.8 °C -3.8 °C 1020.5 hPa ENE 9.5 km/h 12.9 km/h 66 % 0 mm
10:41 1.7 °C -4.2 °C 1020.9 hPa East 11.7 km/h 16.7 km/h 65 % 0 mm
10:46 1.7 °C -4 °C 1020.5 hPa East 7.1 km/h 16.7 km/h 66 % 0 mm
10:51 1.8 °C -3.5 °C 1020.5 hPa ENE 9.7 km/h 13 km/h 68 % 0 mm
10:56 1.9 °C -3.6 °C 1020.9 hPa ENE 9.8 km/h 16.7 km/h 67 % 0 mm
11:01 2 °C -3.9 °C 1020.5 hPa ENE 10.9 km/h 14.8 km/h 65 % 0 mm
11:06 2 °C -3.9 °C 1020.5 hPa ENE 9.5 km/h 13 km/h 65 % 0 mm
11:12 2.1 °C -3.4 °C 1020.5 hPa ENE 9.2 km/h 11.1 km/h 67 % 0 mm
11:17 2.2 °C -3.9 °C 1020.5 hPa NE 7.7 km/h 13 km/h 64 % 0 mm
11:22 2.3 °C -4.5 °C 1020.5 hPa East 7.9 km/h 14.8 km/h 61 % 0 mm
11:27 2.4 °C -4.2 °C 1020.5 hPa East 9.7 km/h 13 km/h 62 % 0 mm
11:32 2.5 °C -4.1 °C 1020.2 hPa East 10.5 km/h 14.8 km/h 62 % 0 mm
11:37 2.6 °C -4.2 °C 1020.2 hPa ENE 13.8 km/h 18.5 km/h 61 % 0 mm
11:42 2.6 °C -4.4 °C 1020.2 hPa East 9.8 km/h 14.8 km/h 60 % 0 mm
11:47 2.3 °C -4.9 °C 1020.2 hPa ENE 11.1 km/h 14.8 km/h 59 % 0 mm
11:52 2.3 °C -4.4 °C 1020.2 hPa East 6.8 km/h 9.3 km/h 61 % 0 mm
11:57 2.2 °C -5.4 °C 1020.2 hPa ENE 11.1 km/h 14.8 km/h 57 % 0 mm
12:02 2.1 °C -5.6 °C 1020.2 hPa ENE 9.7 km/h 11.3 km/h 57 % 0 mm
12:07 1.9 °C -5 °C 1019.9 hPa East 8.9 km/h 16.7 km/h 60 % 0 mm
12:12 1.8 °C -5.4 °C 1019.9 hPa ENE 10.3 km/h 13 km/h 59 % 0 mm
12:17 1.7 °C -5.3 °C 1019.5 hPa ENE 9.3 km/h 16.7 km/h 60 % 0 mm
12:22 1.6 °C -5.3 °C 1019.5 hPa East 9 km/h 13 km/h 60 % 0 mm
12:27 1.7 °C -5 °C 1019.2 hPa ENE 10.5 km/h 13 km/h 61 % 0 mm
12:32 1.8 °C -5.1 °C 1018.8 hPa ENE 9 km/h 13 km/h 60 % 0 mm
12:37 2 °C -4.3 °C 1019.2 hPa ENE 8.2 km/h 12.9 km/h 63 % 0 mm
12:42 2.2 °C -4.6 °C 1019.2 hPa ENE 9 km/h 16.1 km/h 61 % 0 mm
12:47 2.2 °C -4.4 °C 1019.5 hPa ENE 8.2 km/h 9.3 km/h 62 % 0 mm
12:53 2.2 °C -4.8 °C 1018.8 hPa ENE 11.6 km/h 16.7 km/h 60 % 0 mm
12:58 2.2 °C -4.2 °C 1019.2 hPa ENE 5.6 km/h 9.3 km/h 63 % 0 mm
13:03 2.3 °C -4.5 °C 1019.2 hPa ENE 6.4 km/h 13 km/h 61 % 0 mm
13:08 2.4 °C -4.1 °C 1019.2 hPa ENE 6 km/h 11.1 km/h 62 % 0 mm
13:13 2.4 °C -4.3 °C 1018.8 hPa NE 8.7 km/h 13 km/h 61 % 0 mm
13:18 2.5 °C -4.1 °C 1018.5 hPa ENE 12.7 km/h 14.8 km/h 62 % 0 mm
13:23 2.4 °C -4.2 °C 1018.2 hPa East 8.4 km/h 14.8 km/h 62 % 0 mm
13:28 2.5 °C -3.8 °C 1018.2 hPa ENE 8.2 km/h 14.8 km/h 63 % 0 mm
13:33 2.5 °C -3.8 °C 1017.8 hPa East 4 km/h 9.7 km/h 63 % 0 mm
13:38 2.4 °C -3.7 °C 1018.2 hPa ENE 12.1 km/h 17.7 km/h 64 % 0 mm
13:43 2.4 °C -3.7 °C 1018.5 hPa East 3.4 km/h 7.4 km/h 64 % 0 mm
13:48 2.5 °C -3.6 °C 1018.5 hPa ENE 8 km/h 13 km/h 64 % 0 mm
13:53 2.6 °C -3.5 °C 1018.5 hPa South 6.8 km/h 8 km/h 64 % 0 mm
13:58 2.8 °C -3.7 °C 1018.5 hPa SE 5 km/h 14.8 km/h 62 % 0 mm
14:03 3.1 °C -4.1 °C 1018.5 hPa SE 11.7 km/h 18.5 km/h 59 % 0 mm
14:08 3.3 °C -3.8 °C 1018.5 hPa SSW 3.5 km/h 7.4 km/h 60 % 0 mm
14:13 3.4 °C -3.8 °C 1018.8 hPa SSW 8 km/h 16.7 km/h 59 % 0 mm
14:18 3.4 °C -4.1 °C 1018.5 hPa SE 3.9 km/h 11.1 km/h 58 % 0 mm
14:24 3.4 °C -3.8 °C 1018.8 hPa South 6.6 km/h 16.7 km/h 59 % 0 mm
14:29 3.4 °C -3.8 °C 1018.8 hPa SE 6 km/h 14.8 km/h 59 % 0 mm
14:34 3.4 °C -3.8 °C 1019.2 hPa SSE 4.3 km/h 9.3 km/h 59 % 0 mm
14:39 3.4 °C -3.8 °C 1019.2 hPa SSE 8 km/h 11.1 km/h 59 % 0 mm
14:44 3.4 °C -3.9 °C 1019.5 hPa SE 8.7 km/h 13 km/h 59 % 0 mm
14:49 3.4 °C -3.7 °C 1019.2 hPa SSE 6.3 km/h 12.9 km/h 60 % 0 mm
14:54 3.3 °C -3.7 °C 1018.8 hPa SSE 3.7 km/h 6.4 km/h 60 % 0 mm
14:59 3.3 °C -4 °C 1018.5 hPa South 2.4 km/h 6.4 km/h 59 % 0 mm
15:04 3.2 °C -3.6 °C 1018.5 hPa South 7.4 km/h 11.1 km/h 61 % 0 mm
15:09 3.2 °C -3.4 °C 1018.5 hPa SSE 6.8 km/h 9.7 km/h 62 % 0 mm
15:14 3.1 °C -3.5 °C 1018.5 hPa SE 8.2 km/h 11.1 km/h 62 % 0 mm
15:19 3 °C -3.6 °C 1018.5 hPa SSE 2.6 km/h 5.6 km/h 62 % 0 mm
15:24 3 °C -3.4 °C 1018.2 hPa SSE 2.4 km/h 11.1 km/h 63 % 0 mm
15:29 2.9 °C -3.2 °C 1018.2 hPa SSE 4.8 km/h 9.3 km/h 64 % 0 mm
15:34 2.9 °C -3.3 °C 1018.2 hPa South 2.1 km/h 5.6 km/h 64 % 0 mm
15:39 2.9 °C -3.3 °C 1018.2 hPa SSE 3.5 km/h 5.6 km/h 64 % 0 mm
15:44 2.8 °C -3.1 °C 1017.8 hPa SE 5 km/h 6.4 km/h 65 % 0 mm
15:49 2.8 °C -3.1 °C 1017.8 hPa SSE 4.5 km/h 7.4 km/h 65 % 0 mm
15:54 2.8 °C -2.9 °C 1017.8 hPa Calm   5.6 km/h 66 % 0 mm
16:00 2.8 °C -2.9 °C 1017.8 hPa SSE 0.5 km/h 5.6 km/h 66 % 0 mm
16:05 2.7 °C -2.8 °C 1015.8 hPa SSE 11.7 km/h 16.7 km/h 67 % 0 mm
16:10 2.7 °C -2.8 °C 1015.1 hPa SE 7.6 km/h 13 km/h 67 % 0 mm
16:15 2.6 °C -2.7 °C 1014.8 hPa SE 7.7 km/h 14.8 km/h 68 % 0 mm
16:20 2.6 °C -2.6 °C 1014.8 hPa ESE 10.8 km/h 14.8 km/h 69 % 0 mm
16:25 2.6 °C -2.4 °C 1014.8 hPa SE 4.2 km/h 11.1 km/h 70 % 0 mm
16:30 2.6 °C -2.2 °C 1015.1 hPa ESE 4.7 km/h 9.3 km/h 71 % 0 mm
16:35 2.6 °C -2.2 °C 1015.5 hPa East 7.4 km/h 9.3 km/h 71 % 0 mm
16:40 2.6 °C -2.2 °C 1016.1 hPa SE 1.9 km/h 3.7 km/h 71 % 0 mm
16:45 2.6 °C -2.1 °C 1016.1 hPa WSW 4.8 km/h 6.4 km/h 71 % 0 mm
16:50 2.6 °C -1.9 °C 1016.5 hPa WSW 1.6 km/h 3.7 km/h 72 % 0 mm
16:55 2.6 °C -1.9 °C 1016.5 hPa Calm     72 % 0 mm
17:00 2.7 °C -1.9 °C 1016.5 hPa Calm     72 % 0 mm
17:06 2.7 °C -1.9 °C 1016.5 hPa Calm     72 % 0 mm
17:10 2.7 °C -1.7 °C 1016.1 hPa Calm   3.2 km/h 73 % 0 mm
17:15 2.8 °C -1.6 °C 1016.1 hPa SSW 1.1 km/h 5.6 km/h 73 % 0 mm
17:20 2.8 °C -1.4 °C 1016.1 hPa SSW 1.6 km/h 4.8 km/h 74 % 0 mm
17:25 2.8 °C -1.2 °C 1016.1 hPa South 2.3 km/h 4.8 km/h 75 % 0 mm
17:31 2.8 °C -0.6 °C 1016.1 hPa South 1.6 km/h 9.7 km/h 78 % 0 mm
17:35 2.7 °C -0.2 °C 1016.1 hPa SSE 4.8 km/h 14.5 km/h 81 % 0 mm
17:40 2.6 °C -0.2 °C 1016.1 hPa SSE 3.2 km/h 9.7 km/h 82 % 0 mm
17:46 2.4 °C 0 °C 1016.1 hPa SE 1.6 km/h 8 km/h 84 % 0 mm
17:50 2.3 °C -0.1 °C 1016.1 hPa Calm   3.2 km/h 84 % 0 mm
17:56 2.2 °C -0.2 °C 1016.1 hPa Calm     84 % 0 mm
18:01 2.1 °C -0.2 °C 1015.8 hPa Calm     85 % 0 mm
18:06 1.9 °C -0.2 °C 1015.8 hPa Calm     86 % 0 mm
18:11 1.8 °C -0.2 °C 1015.8 hPa Calm     87 % 0 mm
18:16 1.7 °C -0.3 °C 1015.5 hPa Calm     87 % 0 mm
18:21 1.6 °C -0.2 °C 1015.5 hPa Calm     88 % 0 mm
18:26 1.4 °C -0.2 °C 1015.5 hPa Calm     89 % 0 mm
18:31 1.3 °C -0.3 °C 1015.5 hPa Calm     89 % 0 mm
18:36 1.3 °C -0.2 °C 1015.8 hPa Calm     90 % 0 mm
18:41 1.2 °C -0.2 °C 1015.5 hPa Calm     90 % 0 mm
18:46 1.2 °C -0.3 °C 1015.5 hPa Calm     90 % 0 mm
18:51 1.1 °C -0.3 °C 1015.1 hPa Calm     90 % 0 mm
18:56 1.1 °C -0.4 °C 1014.8 hPa Calm     90 % 0 mm
19:01 1 °C -0.3 °C 1014.4 hPa Calm     91 % 0 mm
19:07 0.9 °C -0.3 °C 1014.4 hPa Calm     91 % 0.25 mm
19:12 0.9 °C -0.3 °C 1014.1 hPa Calm   1.9 km/h 91 % 0.25 mm
19:17 0.8 °C -0.3 °C 1014.1 hPa Calm     92 % 0.25 mm
19:22 0.8 °C -0.3 °C 1014.1 hPa Calm     92 % 0.51 mm
19:27 0.8 °C -0.4 °C 1014.1 hPa Calm     92 % 0.51 mm
19:32 0.8 °C -0.2 °C 1014.1 hPa Calm     93 % 0.51 mm
19:37 0.8 °C -0.2 °C 1014.1 hPa Calm     93 % 0.51 mm
19:42 0.7 °C -0.3 °C 1014.1 hPa Calm     93 % 0.76 mm
19:47 0.7 °C -0.3 °C 1013.8 hPa Calm     93 % 0.76 mm
19:52 0.7 °C -0.3 °C 1013.4 hPa Calm     93 % 1.02 mm
19:57 0.7 °C -0.2 °C 1013.4 hPa Calm     94 % 1.02 mm
20:02 0.7 °C -0.2 °C 1013.1 hPa Calm     94 % 1.02 mm
20:07 0.7 °C -0.2 °C 1013.1 hPa Calm     94 % 1.02 mm
20:12 0.7 °C -0.2 °C 1012.8 hPa Calm     94 % 1.27 mm
20:17 0.6 °C -0.2 °C 1012.8 hPa Calm     94 % 1.27 mm
20:22 0.6 °C -0.1 °C 1013.1 hPa Calm     95 % 1.27 mm
20:28 0.6 °C -0.1 °C 1012.8 hPa Calm     95 % 1.27 mm
20:33 0.6 °C -0.1 °C 1012.8 hPa Calm     95 % 1.52 mm
20:38 0.6 °C -0.1 °C 1012.4 hPa Calm     95 % 1.78 mm
20:43 0.6 °C -0.1 °C 1012.4 hPa Calm     95 % 1.52 mm
20:48 0.6 °C -0.2 °C 1012.1 hPa Calm     95 % 2.03 mm
20:53 0.6 °C -0.2 °C 1012.1 hPa Calm     95 % 2.03 mm
20:58 0.6 °C -0.2 °C 1011.7 hPa Calm     95 % 2.54 mm
21:03 0.6 °C -0.2 °C 1011.7 hPa Calm     95 % 2.54 mm
21:08 0.6 °C -0.1 °C 1011.4 hPa Calm     95 % 2.79 mm
21:13 0.6 °C -0.1 °C 1011.1 hPa Calm     95 % 2.79 mm
21:18 0.6 °C -0.1 °C 1011.1 hPa Calm     95 % 3.3 mm
21:23 0.6 °C 0.1 °C 1010.7 hPa Calm     96 % 3.3 mm
21:28 0.6 °C 0.1 °C 1010.4 hPa Calm     96 % 3.56 mm
21:33 0.7 °C 0.1 °C 1010.4 hPa SE 2.3 km/h 5.6 km/h 96 % 3.56 mm
21:38 0.7 °C 0.1 °C 1010 hPa SE 1.3 km/h 3.2 km/h 96 % 3.3 mm
21:43 0.7 °C 0.1 °C 1010 hPa SE 0.5 km/h 1.9 km/h 96 % 3.56 mm
21:48 0.7 °C 0.1 °C 1010 hPa SE 1.3 km/h 4.8 km/h 96 % 3.3 mm
21:53 0.7 °C 0.1 °C 1009.7 hPa SE 2.3 km/h 3.7 km/h 96 % 3.3 mm
21:59 0.7 °C 0.1 °C 1009.7 hPa SE 1 km/h 3.7 km/h 96 % 2.79 mm
22:04 0.7 °C 0.1 °C 1009.4 hPa SE 1 km/h 3.7 km/h 96 % 2.79 mm
22:09 0.7 °C 0.1 °C 1009.4 hPa Calm   3.7 km/h 96 % 2.54 mm
22:14 0.6 °C 0.1 °C 1009.4 hPa Calm     96 % 2.29 mm
22:19 0.6 °C 0.1 °C 1009 hPa Calm     96 % 2.03 mm
22:24 0.6 °C 0.1 °C 1009 hPa Calm     96 % 2.03 mm
22:29 0.6 °C 0.1 °C 1009 hPa Calm     96 % 1.78 mm
22:34 0.6 °C 0.1 °C 1009 hPa Calm     96 % 1.52 mm
22:39 0.6 °C 0 °C 1009 hPa Calm     96 % 1.52 mm
22:44 0.6 °C 0 °C 1009 hPa Calm     96 % 1.52 mm
22:49 0.6 °C 0.1 °C 1009 hPa Calm     96 % 1.52 mm
22:54 0.6 °C 0 °C 1008.7 hPa Calm     96 % 1.27 mm
22:59 0.6 °C 0 °C 1008.7 hPa Calm     96 % 1.52 mm
23:04 0.6 °C 0 °C 1008.4 hPa Calm     96 % 1.52 mm
23:09 0.6 °C 0 °C 1008.4 hPa Calm     96 % 1.52 mm
23:14 0.6 °C 0 °C 1008.4 hPa Calm     96 % 1.52 mm
23:19 0.6 °C 0 °C 1008 hPa Calm     96 % 1.78 mm
23:24 0.6 °C 0 °C 1008.4 hPa Calm     96 % 1.52 mm
23:29 0.6 °C 0 °C 1008 hPa Calm     96 % 1.78 mm
23:34 0.6 °C 0 °C 1008 hPa Calm     96 % 1.78 mm
23:40 0.6 °C 0 °C 1007.7 hPa Calm     96 % 1.78 mm
23:45 0.6 °C 0 °C 1007.7 hPa Calm     96 % 1.78 mm
23:50 0.6 °C 0 °C 1007.7 hPa Calm     96 % 1.52 mm
23:55 0.6 °C 0.1 °C 1007.7 hPa Calm     97 % 1.52 mm
Crab Meadow Weather
Compliments of Weather Underground - 3 mb

Script developed by  Jim McMurry - jmcmurry@mwt.net Adapted for the template by  Wim van der Kuil - Leuven-Template.eu

Extremes: The most widespread U.S. cold wave was in February of 1899. It was so cold that the Mississippi River froze over its entire length, with ice as thick as two inches even in New Orleans.